Time;durP1;ratioP1;P1;durP2;ratioP2;P2;SDS_P1;SDS_P2;PMS_P1;PMS_P2;Temp;Humidity;BMP_temperature;BMP_pressure;BME280_temperature;BME280_humidity;BME280_pressure;Samples;Min_cycle;Max_cycle;Signal;HPM_P1;HPM_P2
2020/10/04 00:02:25;;;;;;;1.79;1.30;;;;;;;20.50;64.78;98163.05;;;;-59
2020/10/04 00:05:25;;;;;;;1.44;1.34;;;;;;;20.49;64.79;98154.41;;;;-59
2020/10/04 00:08:25;;;;;;;1.86;1.34;;;;;;;20.48;64.80;98155.58;;;;-59
2020/10/04 00:11:25;;;;;;;1.38;1.28;;;;;;;20.47;64.85;98149.44;;;;-60
2020/10/04 00:14:25;;;;;;;1.56;1.20;;;;;;;20.46;64.84;98147.68;;;;-59
2020/10/04 00:17:25;;;;;;;1.22;1.14;;;;;;;20.45;64.86;98150.05;;;;-59
2020/10/04 00:20:25;;;;;;;1.41;1.31;;;;;;;20.45;64.84;98146.14;;;;-59
2020/10/04 00:23:25;;;;;;;1.41;1.31;;;;;;;20.44;64.88;98138.70;;;;-59
2020/10/04 00:26:25;;;;;;;1.38;1.28;;;;;;;20.43;64.79;98125.06;;;;-59
2020/10/04 00:29:25;;;;;;;1.30;1.20;;;;;;;20.43;64.82;98119.55;;;;-58
2020/10/04 00:32:25;;;;;;;1.27;1.17;;;;;;;20.43;64.74;98125.09;;;;-59
2020/10/04 00:35:25;;;;;;;1.49;1.39;;;;;;;20.42;64.82;98115.11;;;;-59
2020/10/04 00:38:25;;;;;;;1.41;1.29;;;;;;;20.40;64.81;98113.63;;;;-59
2020/10/04 00:41:25;;;;;;;1.20;1.13;;;;;;;20.40;64.90;98115.09;;;;-59
2020/10/04 00:44:25;;;;;;;1.41;1.30;;;;;;;20.40;64.80;98112.17;;;;-59
2020/10/04 00:47:25;;;;;;;1.79;1.24;;;;;;;20.39;64.91;98110.09;;;;-59
2020/10/04 00:50:25;;;;;;;1.35;1.25;;;;;;;20.38;64.86;98101.27;;;;-59
2020/10/04 00:53:25;;;;;;;1.25;1.15;;;;;;;20.38;64.84;98100.20;;;;-59
2020/10/04 00:56:25;;;;;;;1.37;1.20;;;;;;;20.37;64.93;98100.57;;;;-58
2020/10/04 00:59:25;;;;;;;1.30;1.20;;;;;;;20.37;64.88;98099.66;;;;-59
2020/10/04 01:02:25;;;;;;;1.17;1.10;;;;;;;20.36;64.85;98091.39;;;;-59
2020/10/04 01:05:25;;;;;;;1.30;1.20;;;;;;;20.36;64.94;98095.06;;;;-59
2020/10/04 01:08:25;;;;;;;1.20;1.19;;;;;;;20.34;64.95;98085.12;;;;-59
2020/10/04 01:11:25;;;;;;;1.30;1.20;;;;;;;20.34;64.97;98074.55;;;;-59
2020/10/04 01:14:25;;;;;;;1.30;1.20;;;;;;;20.34;65.00;98066.21;;;;-59
2020/10/04 01:17:25;;;;;;;1.30;1.20;;;;;;;20.33;64.91;98055.66;;;;-59
2020/10/04 01:20:25;;;;;;;1.35;1.25;;;;;;;20.33;64.96;98049.22;;;;-59
2020/10/04 01:23:25;;;;;;;1.24;1.14;;;;;;;20.32;64.97;98041.95;;;;-59
2020/10/04 01:26:25;;;;;;;1.26;1.16;;;;;;;20.32;64.90;98042.11;;;;-59
2020/10/04 01:29:25;;;;;;;1.57;1.20;;;;;;;20.31;64.93;98033.03;;;;-59
2020/10/04 01:32:25;;;;;;;1.28;1.19;;;;;;;20.31;65.02;98034.75;;;;-59
2020/10/04 01:35:25;;;;;;;1.29;1.19;;;;;;;20.30;65.01;98038.94;;;;-59
2020/10/04 01:38:25;;;;;;;1.40;1.30;;;;;;;20.29;64.97;98044.06;;;;-59
2020/10/04 01:41:25;;;;;;;1.32;1.14;;;;;;;20.28;65.01;98055.73;;;;-59
2020/10/04 01:44:25;;;;;;;1.31;1.20;;;;;;;20.29;64.97;98052.27;;;;-59
2020/10/04 01:47:25;;;;;;;1.29;1.19;;;;;;;20.28;64.91;98049.87;;;;-59
2020/10/04 01:50:25;;;;;;;1.26;1.16;;;;;;;20.27;65.05;98048.20;;;;-59
2020/10/04 01:53:26;;;;;;;1.29;1.19;;;;;;;20.28;65.08;98047.46;;;;-59
2020/10/04 01:56:25;;;;;;;1.33;1.23;;;;;;;20.27;65.07;98052.85;;;;-58
2020/10/04 01:59:25;;;;;;;1.30;1.20;;;;;;;20.27;65.03;98062.69;;;;-59
2020/10/04 02:02:25;;;;;;;1.25;1.15;;;;;;;20.27;65.12;98071.23;;;;-59
2020/10/04 02:05:25;;;;;;;1.23;1.10;;;;;;;20.26;65.02;98066.13;;;;-59
2020/10/04 02:08:25;;;;;;;1.29;1.19;;;;;;;20.25;65.09;98078.05;;;;-59
2020/10/04 02:11:25;;;;;;;1.15;1.13;;;;;;;20.25;65.14;98081.46;;;;-59
2020/10/04 02:14:25;;;;;;;1.21;1.10;;;;;;;20.25;65.09;98093.49;;;;-59
2020/10/04 02:17:25;;;;;;;1.29;1.21;;;;;;;20.25;65.09;98109.11;;;;-59
2020/10/04 02:20:25;;;;;;;1.21;1.11;;;;;;;20.24;65.13;98107.92;;;;-59
2020/10/04 02:23:25;;;;;;;1.20;1.10;;;;;;;20.24;65.11;98104.86;;;;-59
2020/10/04 02:26:25;;;;;;;1.28;1.18;;;;;;;20.23;65.13;98105.34;;;;-59
2020/10/04 02:29:25;;;;;;;1.27;1.17;;;;;;;20.23;65.19;98113.73;;;;-59
2020/10/04 02:32:25;;;;;;;1.15;1.14;;;;;;;20.22;65.15;98120.42;;;;-59
2020/10/04 02:35:25;;;;;;;1.29;1.16;;;;;;;20.23;65.10;98099.34;;;;-59
2020/10/04 02:38:25;;;;;;;1.36;1.20;;;;;;;20.22;65.16;98131.02;;;;-59
2020/10/04 02:41:26;;;;;;;1.10;1.10;;;;;;;20.22;65.15;98132.39;;;;-59
2020/10/04 02:44:25;;;;;;;1.29;1.19;;;;;;;20.22;65.15;98130.27;;;;-59
2020/10/04 02:47:25;;;;;;;1.28;1.18;;;;;;;20.21;65.20;98139.01;;;;-59
2020/10/04 02:50:25;;;;;;;1.23;1.20;;;;;;;20.21;65.18;98133.38;;;;-59
2020/10/04 02:53:25;;;;;;;1.21;1.13;;;;;;;20.20;65.18;98137.98;;;;-59
2020/10/04 02:56:25;;;;;;;1.33;1.24;;;;;;;20.20;65.19;98143.35;;;;-59
2020/10/04 02:59:25;;;;;;;1.20;1.08;;;;;;;20.20;65.17;98141.17;;;;-59
2020/10/04 03:02:25;;;;;;;1.01;1.01;;;;;;;20.19;65.19;98157.94;;;;-59
2020/10/04 03:05:26;;;;;;;1.09;1.09;;;;;;;20.19;65.12;98158.17;;;;-59
2020/10/04 03:08:25;;;;;;;1.30;1.20;;;;;;;20.18;65.18;98158.52;;;;-59
2020/10/04 03:11:25;;;;;;;1.24;1.17;;;;;;;20.18;65.16;98160.56;;;;-59
2020/10/04 03:14:25;;;;;;;1.43;1.20;;;;;;;20.18;65.22;98171.72;;;;-59
2020/10/04 03:17:25;;;;;;;1.31;1.21;;;;;;;20.17;65.21;98175.33;;;;-59
2020/10/04 03:20:25;;;;;;;1.01;1.01;;;;;;;20.17;65.21;98180.03;;;;-59
2020/10/04 03:23:25;;;;;;;1.24;1.16;;;;;;;20.17;65.20;98173.20;;;;-59
2020/10/04 03:26:25;;;;;;;1.19;1.12;;;;;;;20.16;65.23;98182.52;;;;-59
2020/10/04 03:29:25;;;;;;;1.07;1.07;;;;;;;20.16;65.20;98179.11;;;;-59
2020/10/04 03:32:25;;;;;;;1.10;1.10;;;;;;;20.16;65.21;98189.28;;;;-59
2020/10/04 03:35:25;;;;;;;1.23;1.17;;;;;;;20.15;65.20;98194.73;;;;-59
2020/10/04 03:38:25;;;;;;;1.17;1.17;;;;;;;20.15;65.23;98197.92;;;;-59
2020/10/04 03:41:25;;;;;;;1.24;1.14;;;;;;;20.14;65.21;98185.91;;;;-59
2020/10/04 03:44:25;;;;;;;1.09;1.09;;;;;;;20.15;65.22;98185.40;;;;-59
2020/10/04 03:47:25;;;;;;;1.30;1.20;;;;;;;20.14;65.22;98189.84;;;;-59
2020/10/04 03:50:25;;;;;;;1.25;1.20;;;;;;;20.13;65.22;98189.44;;;;-59
2020/10/04 03:53:25;;;;;;;1.27;1.17;;;;;;;20.13;65.21;98188.30;;;;-59
2020/10/04 03:56:25;;;;;;;1.03;1.03;;;;;;;20.13;65.23;98193.66;;;;-59
2020/10/04 03:59:25;;;;;;;1.30;1.20;;;;;;;20.12;65.24;98198.59;;;;-59
2020/10/04 04:02:25;;;;;;;1.29;1.19;;;;;;;20.11;65.25;98202.94;;;;-59
2020/10/04 04:05:25;;;;;;;1.22;1.12;;;;;;;20.12;65.26;98210.30;;;;-59
2020/10/04 04:08:25;;;;;;;1.09;1.07;;;;;;;20.10;65.26;98206.77;;;;-59
2020/10/04 04:11:25;;;;;;;1.20;1.10;;;;;;;20.12;65.27;98212.18;;;;-59
2020/10/04 04:14:25;;;;;;;1.15;1.10;;;;;;;20.11;65.23;98212.63;;;;-59
2020/10/04 04:17:25;;;;;;;1.00;1.00;;;;;;;20.10;65.21;98228.32;;;;-58
2020/10/04 04:20:25;;;;;;;1.00;1.00;;;;;;;20.09;65.26;98230.88;;;;-59
2020/10/04 04:23:25;;;;;;;1.11;1.11;;;;;;;20.09;65.26;98222.91;;;;-59
2020/10/04 04:26:25;;;;;;;1.00;1.00;;;;;;;20.09;65.18;98230.09;;;;-59
2020/10/04 04:29:25;;;;;;;1.19;1.10;;;;;;;20.08;65.28;98225.69;;;;-59
2020/10/04 04:32:25;;;;;;;1.17;1.17;;;;;;;20.08;65.26;98235.05;;;;-59
2020/10/04 04:35:25;;;;;;;1.08;1.08;;;;;;;20.08;65.28;98236.94;;;;-59
2020/10/04 04:38:25;;;;;;;0.91;0.91;;;;;;;20.08;65.26;98248.71;;;;-59
2020/10/04 04:41:25;;;;;;;1.08;1.05;;;;;;;20.07;65.26;98252.41;;;;-58
2020/10/04 04:44:26;;;;;;;1.05;1.00;;;;;;;20.07;65.29;98251.43;;;;-59
2020/10/04 04:47:26;;;;;;;1.03;1.00;;;;;;;20.07;65.30;98255.03;;;;-59
2020/10/04 04:50:25;;;;;;;1.62;1.19;;;;;;;20.07;65.27;98262.02;;;;-58
2020/10/04 04:53:25;;;;;;;0.98;0.98;;;;;;;20.06;65.32;98259.92;;;;-49
2020/10/04 04:56:25;;;;;;;1.01;1.01;;;;;;;20.06;65.30;98274.23;;;;-49
2020/10/04 04:59:26;;;;;;;1.07;1.07;;;;;;;20.06;65.30;98278.63;;;;-49
2020/10/04 05:02:25;;;;;;;1.04;1.04;;;;;;;20.06;65.25;98274.07;;;;-49
2020/10/04 05:05:28;;;;;;;1.12;1.02;;;;;;;20.06;65.32;98282.36;;;;-49
2020/10/04 05:08:26;;;;;;;1.04;1.04;;;;;;;20.05;65.31;98286.97;;;;-49
2020/10/04 05:11:25;;;;;;;1.10;1.10;;;;;;;20.05;65.33;98296.23;;;;-49
2020/10/04 05:14:25;;;;;;;1.14;1.05;;;;;;;20.05;65.33;98296.88;;;;-49
2020/10/04 05:17:25;;;;;;;1.20;1.10;;;;;;;20.04;65.30;98309.30;;;;-49
2020/10/04 05:20:25;;;;;;;0.94;0.94;;;;;;;20.03;65.29;98309.84;;;;-49
2020/10/04 05:23:25;;;;;;;0.93;0.93;;;;;;;20.04;65.31;98316.08;;;;-49
2020/10/04 05:26:25;;;;;;;0.99;0.99;;;;;;;20.03;65.27;98316.66;;;;-49
2020/10/04 05:29:25;;;;;;;0.99;0.99;;;;;;;20.03;65.28;98321.31;;;;-49
2020/10/04 05:32:25;;;;;;;1.00;1.00;;;;;;;20.03;65.27;98326.52;;;;-49
2020/10/04 05:35:25;;;;;;;1.10;1.10;;;;;;;20.03;65.29;98329.79;;;;-48
2020/10/04 05:38:25;;;;;;;1.03;1.03;;;;;;;20.02;65.26;98345.30;;;;-48
2020/10/04 05:41:25;;;;;;;0.86;0.86;;;;;;;20.02;65.24;98353.91;;;;-49
2020/10/04 05:44:25;;;;;;;1.09;1.09;;;;;;;20.02;65.31;98356.54;;;;-48
2020/10/04 05:47:25;;;;;;;1.05;1.05;;;;;;;20.01;65.33;98364.53;;;;-49
2020/10/04 05:50:25;;;;;;;1.00;1.00;;;;;;;20.01;65.32;98390.96;;;;-49
2020/10/04 05:53:25;;;;;;;1.12;1.10;;;;;;;20.02;65.24;98371.42;;;;-49
2020/10/04 05:56:25;;;;;;;1.11;1.10;;;;;;;20.02;65.25;98375.73;;;;-59
2020/10/04 05:59:25;;;;;;;1.03;1.01;;;;;;;20.02;65.25;98388.25;;;;-59
2020/10/04 06:02:25;;;;;;;1.13;1.08;;;;;;;20.02;65.26;98391.50;;;;-59
2020/10/04 06:05:25;;;;;;;0.93;0.93;;;;;;;20.02;65.28;98403.05;;;;-59
2020/10/04 06:08:25;;;;;;;1.00;1.00;;;;;;;20.02;65.26;98406.76;;;;-59
2020/10/04 06:11:25;;;;;;;1.00;1.00;;;;;;;20.02;65.26;98410.75;;;;-58
2020/10/04 06:14:25;;;;;;;1.00;1.00;;;;;;;20.02;65.28;98418.30;;;;-58
2020/10/04 06:17:25;;;;;;;0.91;0.91;;;;;;;20.02;65.32;98424.41;;;;-59
2020/10/04 06:20:25;;;;;;;0.99;0.99;;;;;;;20.02;65.24;98425.31;;;;-55
2020/10/04 06:23:25;;;;;;;1.10;1.00;;;;;;;20.02;65.27;98428.24;;;;-55
2020/10/04 06:26:25;;;;;;;1.19;1.09;;;;;;;20.01;65.26;98433.47;;;;-59
2020/10/04 06:29:25;;;;;;;1.07;0.99;;;;;;;20.02;65.26;98446.69;;;;-49
2020/10/04 06:32:25;;;;;;;0.99;0.99;;;;;;;20.02;65.29;98450.27;;;;-49
2020/10/04 06:35:25;;;;;;;0.88;0.88;;;;;;;20.02;65.28;98460.44;;;;-49
2020/10/04 06:38:25;;;;;;;1.00;1.00;;;;;;;20.02;65.25;98465.80;;;;-49
2020/10/04 06:41:25;;;;;;;0.95;0.95;;;;;;;20.02;65.28;98477.84;;;;-49
2020/10/04 06:44:25;;;;;;;1.00;1.00;;;;;;;20.02;65.27;98497.26;;;;-49
2020/10/04 06:47:25;;;;;;;1.11;1.10;;;;;;;20.02;65.26;98498.47;;;;-49
2020/10/04 06:50:25;;;;;;;0.93;0.93;;;;;;;20.02;65.25;98513.84;;;;-48
2020/10/04 06:53:25;;;;;;;0.89;0.89;;;;;;;20.01;65.25;98519.02;;;;-49
2020/10/04 06:56:25;;;;;;;1.00;1.00;;;;;;;20.01;65.26;98527.38;;;;-49
2020/10/04 06:59:25;;;;;;;1.45;1.00;;;;;;;20.02;65.22;98537.77;;;;-54
2020/10/04 07:02:25;;;;;;;1.13;1.00;;;;;;;20.02;65.25;98541.34;;;;-50
2020/10/04 07:05:25;;;;;;;1.01;1.01;;;;;;;20.02;65.26;98552.47;;;;-50
2020/10/04 07:08:25;;;;;;;1.04;1.04;;;;;;;20.01;65.27;98558.51;;;;-50
2020/10/04 07:11:25;;;;;;;1.11;0.87;;;;;;;20.01;65.27;98566.15;;;;-50
2020/10/04 07:14:25;;;;;;;1.01;1.00;;;;;;;20.01;65.21;98567.05;;;;-49
2020/10/04 07:17:25;;;;;;;5.03;1.25;;;;;;;19.97;62.02;98572.18;;;;-49
2020/10/04 07:20:26;;;;;;;0.95;0.86;;;;;;;19.86;60.33;98576.86;;;;-61
2020/10/04 07:23:25;;;;;;;1.92;1.07;;;;;;;19.82;59.88;98588.28;;;;-49
2020/10/04 07:26:25;;;;;;;1.24;1.01;;;;;;;19.78;58.79;98593.98;;;;-49
2020/10/04 07:29:25;;;;;;;2.62;0.89;;;;;;;19.82;59.58;98608.34;;;;-48
2020/10/04 07:32:25;;;;;;;0.90;0.90;;;;;;;19.86;60.76;98606.70;;;;-48
2020/10/04 07:35:25;;;;;;;1.43;1.00;;;;;;;19.91;61.28;98610.82;;;;-56
2020/10/04 07:38:25;;;;;;;1.33;0.92;;;;;;;19.95;61.65;98613.55;;;;-56
2020/10/04 07:41:25;;;;;;;1.43;1.00;;;;;;;20.00;62.07;98620.47;;;;-55
2020/10/04 07:44:25;;;;;;;1.10;1.00;;;;;;;20.05;62.26;98621.28;;;;-56
2020/10/04 07:47:25;;;;;;;2.49;1.00;;;;;;;20.10;62.48;98622.84;;;;-48
2020/10/04 07:50:25;;;;;;;1.35;0.93;;;;;;;20.14;62.58;98626.89;;;;-49
2020/10/04 07:53:25;;;;;;;1.13;0.99;;;;;;;20.17;62.75;98622.98;;;;-48
2020/10/04 07:56:25;;;;;;;1.31;0.84;;;;;;;20.21;62.85;98619.14;;;;-48
2020/10/04 07:59:25;;;;;;;1.71;1.00;;;;;;;20.23;62.15;98624.03;;;;-60
2020/10/04 08:02:25;;;;;;;2.03;0.90;;;;;;;20.25;61.99;98625.61;;;;-62
2020/10/04 08:05:25;;;;;;;2.50;0.99;;;;;;;20.27;62.06;98626.63;;;;-58
2020/10/04 08:08:25;;;;;;;8.43;1.55;;;;;;;20.33;61.96;98641.77;;;;-57
2020/10/04 08:11:25;;;;;;;8.75;1.42;;;;;;;20.35;62.56;98651.53;;;;-57
2020/10/04 08:14:25;;;;;;;5.60;1.25;;;;;;;20.38;62.66;98646.50;;;;-60
2020/10/04 08:17:25;;;;;;;2.84;1.18;;;;;;;20.40;62.53;98658.27;;;;-54
2020/10/04 08:20:25;;;;;;;2.82;1.09;;;;;;;20.42;62.35;98664.45;;;;-56
2020/10/04 08:23:25;;;;;;;2.81;1.08;;;;;;;20.43;61.90;98678.91;;;;-60
2020/10/04 08:26:25;;;;;;;4.81;1.26;;;;;;;20.45;62.13;98675.59;;;;-46
2020/10/04 08:29:25;;;;;;;3.03;1.21;;;;;;;20.47;62.23;98695.89;;;;-49
2020/10/04 08:32:25;;;;;;;3.17;1.10;;;;;;;20.50;62.15;98699.81;;;;-47
2020/10/04 08:35:26;;;;;;;2.81;1.21;;;;;;;20.54;62.30;98714.67;;;;-56
2020/10/04 08:38:25;;;;;;;5.06;1.27;;;;;;;20.56;62.56;98707.63;;;;-49
2020/10/04 08:41:25;;;;;;;3.74;1.12;;;;;;;20.59;62.90;98711.17;;;;-50
2020/10/04 08:44:25;;;;;;;6.45;1.11;;;;;;;20.60;63.13;98715.27;;;;-57
2020/10/04 08:47:26;;;;;;;3.77;1.11;;;;;;;20.63;63.23;98724.41;;;;-61
2020/10/04 08:50:25;;;;;;;2.39;1.09;;;;;;;20.65;63.32;98728.42;;;;-58
2020/10/04 08:53:25;;;;;;;1.28;0.98;;;;;;;20.67;63.18;98727.87;;;;-54
2020/10/04 08:56:25;;;;;;;1.48;1.00;;;;;;;20.68;63.21;98726.23;;;;-54
2020/10/04 08:59:25;;;;;;;4.07;1.27;;;;;;;20.69;63.18;98734.92;;;;-54
2020/10/04 09:02:25;;;;;;;3.27;1.31;;;;;;;20.71;63.24;98741.77;;;;-54
2020/10/04 09:05:25;;;;;;;1.81;1.10;;;;;;;20.71;63.33;98750.73;;;;-52
2020/10/04 09:08:25;;;;;;;1.85;1.17;;;;;;;20.72;63.46;98758.27;;;;-54
2020/10/04 09:11:25;;;;;;;2.93;1.26;;;;;;;20.73;63.30;98755.48;;;;-53
2020/10/04 09:14:25;;;;;;;4.17;1.29;;;;;;;20.75;63.45;98779.75;;;;-58
2020/10/04 09:17:25;;;;;;;6.19;1.31;;;;;;;20.74;63.43;98777.50;;;;-52
2020/10/04 09:20:25;;;;;;;3.22;1.09;;;;;;;20.75;63.05;98772.05;;;;-53
2020/10/04 09:23:25;;;;;;;4.29;1.20;;;;;;;20.77;63.19;98783.94;;;;-57
2020/10/04 09:26:25;;;;;;;2.11;1.20;;;;;;;20.76;63.29;98780.23;;;;-55
2020/10/04 09:29:25;;;;;;;2.61;1.01;;;;;;;20.76;63.35;98781.37;;;;-53
2020/10/04 09:32:25;;;;;;;3.69;1.11;;;;;;;20.77;63.47;98787.28;;;;-58
2020/10/04 09:35:25;;;;;;;2.85;0.99;;;;;;;20.76;63.35;98783.91;;;;-58
2020/10/04 09:38:25;;;;;;;3.03;1.11;;;;;;;20.75;63.31;98782.52;;;;-51
2020/10/04 09:41:25;;;;;;;2.91;1.19;;;;;;;20.74;63.30;98775.70;;;;-51
2020/10/04 09:44:25;;;;;;;3.95;1.28;;;;;;;20.73;63.34;98774.28;;;;-47
2020/10/04 09:47:25;;;;;;;3.04;1.17;;;;;;;20.74;63.28;98783.96;;;;-49
2020/10/04 09:50:25;;;;;;;4.90;1.20;;;;;;;20.74;62.98;98780.77;;;;-50
2020/10/04 09:53:25;;;;;;;4.89;1.21;;;;;;;20.73;63.16;98793.58;;;;-51
2020/10/04 09:56:25;;;;;;;3.75;1.07;;;;;;;20.71;63.24;98784.59;;;;-48
2020/10/04 09:59:25;;;;;;;5.16;1.13;;;;;;;20.73;63.29;98793.16;;;;-49
2020/10/04 10:02:25;;;;;;;2.92;1.11;;;;;;;20.74;63.13;98790.64;;;;-50
2020/10/04 10:05:25;;;;;;;1.46;1.07;;;;;;;20.74;63.16;98795.50;;;;-48
2020/10/04 10:08:25;;;;;;;2.61;1.29;;;;;;;20.76;63.02;98782.19;;;;-52
2020/10/04 10:11:25;;;;;;;3.37;1.20;;;;;;;20.77;63.05;98793.22;;;;-60
2020/10/04 10:14:25;;;;;;;6.73;1.21;;;;;;;20.77;62.88;98781.66;;;;-61
2020/10/04 10:17:25;;;;;;;3.95;1.28;;;;;;;20.76;62.81;98787.47;;;;-57
2020/10/04 10:20:25;;;;;;;5.29;1.38;;;;;;;20.76;62.95;98785.59;;;;-58
2020/10/04 10:23:25;;;;;;;5.20;1.50;;;;;;;20.76;62.84;98782.09;;;;-59
2020/10/04 10:26:25;;;;;;;4.64;1.38;;;;;;;20.76;62.97;98781.70;;;;-55
2020/10/04 10:29:25;;;;;;;3.93;1.30;;;;;;;20.78;63.06;98791.34;;;;-57
2020/10/04 10:32:25;;;;;;;2.64;1.21;;;;;;;20.79;63.07;98792.44;;;;-52
2020/10/04 10:35:25;;;;;;;6.53;1.29;;;;;;;20.79;63.09;98789.49;;;;-52
2020/10/04 10:38:26;;;;;;;6.50;1.39;;;;;;;20.81;63.07;98796.70;;;;-51
2020/10/04 10:41:25;;;;;;;5.84;1.23;;;;;;;20.82;63.14;98799.55;;;;-44
2020/10/04 10:44:25;;;;;;;3.68;1.20;;;;;;;20.83;63.18;98809.77;;;;-44
2020/10/04 10:47:25;;;;;;;2.52;1.05;;;;;;;20.82;63.22;98800.52;;;;-51
2020/10/04 10:50:25;;;;;;;4.45;1.25;;;;;;;20.83;63.14;98813.92;;;;-52
2020/10/04 10:53:25;;;;;;;4.45;1.27;;;;;;;20.84;63.20;98821.08;;;;-52
2020/10/04 10:56:25;;;;;;;2.78;1.27;;;;;;;20.84;63.13;98818.05;;;;-56
2020/10/04 10:59:25;;;;;;;2.63;1.23;;;;;;;20.83;63.15;98806.81;;;;-55
2020/10/04 11:02:25;;;;;;;6.13;1.30;;;;;;;20.84;63.08;98819.45;;;;-58
2020/10/04 11:05:25;;;;;;;3.62;1.31;;;;;;;20.84;63.17;98826.34;;;;-48
2020/10/04 11:08:25;;;;;;;4.24;1.24;;;;;;;20.83;63.15;98824.50;;;;-49
2020/10/04 11:11:25;;;;;;;3.37;1.19;;;;;;;20.83;63.12;98820.25;;;;-49
2020/10/04 11:14:25;;;;;;;3.56;1.27;;;;;;;20.82;63.14;98818.58;;;;-59
2020/10/04 11:17:25;;;;;;;3.77;1.24;;;;;;;20.82;63.12;98808.42;;;;-58
2020/10/04 11:20:25;;;;;;;4.41;1.34;;;;;;;20.81;63.08;98805.88;;;;-59
2020/10/04 11:23:25;;;;;;;3.16;1.13;;;;;;;20.81;63.09;98802.48;;;;-59
2020/10/04 11:26:25;;;;;;;2.72;1.21;;;;;;;20.81;63.10;98790.85;;;;-59
2020/10/04 11:29:25;;;;;;;2.71;1.24;;;;;;;20.79;63.03;98789.49;;;;-59
2020/10/04 11:32:25;;;;;;;3.35;1.20;;;;;;;20.79;63.02;98791.61;;;;-58
2020/10/04 11:35:25;;;;;;;2.63;1.05;;;;;;;20.78;63.04;98795.95;;;;-59
2020/10/04 11:38:25;;;;;;;2.57;1.21;;;;;;;20.78;63.04;98791.00;;;;-59
2020/10/04 11:41:25;;;;;;;2.45;1.07;;;;;;;20.78;63.08;98790.37;;;;-59
2020/10/04 11:44:25;;;;;;;3.01;1.17;;;;;;;20.77;63.05;98793.22;;;;-59
2020/10/04 11:47:25;;;;;;;2.69;1.20;;;;;;;20.75;63.06;98788.06;;;;-58
2020/10/04 11:50:25;;;;;;;4.07;1.19;;;;;;;20.75;63.03;98783.19;;;;-58
2020/10/04 11:53:26;;;;;;;1.93;1.10;;;;;;;20.76;63.06;98782.93;;;;-58
2020/10/04 11:56:25;;;;;;;1.83;1.21;;;;;;;20.74;63.05;98774.59;;;;-58
2020/10/04 11:59:25;;;;;;;2.45;1.15;;;;;;;20.75;63.05;98779.44;;;;-58
2020/10/04 12:02:25;;;;;;;2.82;1.13;;;;;;;20.75;63.10;98777.80;;;;-58
2020/10/04 12:05:25;;;;;;;1.75;1.10;;;;;;;20.74;63.04;98778.24;;;;-58
2020/10/04 12:08:25;;;;;;;2.72;1.15;;;;;;;20.74;63.07;98770.68;;;;-47
2020/10/04 12:11:25;;;;;;;2.49;1.19;;;;;;;20.73;63.05;98773.72;;;;-48
2020/10/04 12:14:25;;;;;;;1.99;1.28;;;;;;;20.72;63.02;98768.36;;;;-58
2020/10/04 12:17:26;;;;;;;2.39;1.24;;;;;;;20.72;63.04;98769.02;;;;-58
2020/10/04 12:20:25;;;;;;;1.77;1.00;;;;;;;20.72;63.07;98777.41;;;;-58
2020/10/04 12:23:25;;;;;;;2.23;1.16;;;;;;;20.71;63.09;98783.88;;;;-58
2020/10/04 12:26:25;;;;;;;2.23;1.09;;;;;;;20.72;63.08;98793.78;;;;-59
2020/10/04 12:29:25;;;;;;;1.91;1.10;;;;;;;20.71;63.08;98801.03;;;;-59
2020/10/04 12:32:25;;;;;;;1.41;1.11;;;;;;;20.70;63.09;98795.67;;;;-59
2020/10/04 12:35:26;;;;;;;6.32;1.17;;;;;;;20.70;63.07;98797.30;;;;-57
2020/10/04 12:38:27;;;;;;;2.57;1.20;;;;;;;20.70;63.03;98799.27;;;;-52
2020/10/04 12:41:25;;;;;;;1.93;1.20;;;;;;;20.72;62.87;98801.81;;;;-47
2020/10/04 12:44:26;;;;;;;2.90;1.20;;;;;;;20.73;62.85;98801.47;;;;-47
2020/10/04 12:47:25;;;;;;;2.59;1.14;;;;;;;20.74;62.82;98794.84;;;;-53
2020/10/04 12:50:25;;;;;;;3.87;1.29;;;;;;;20.74;62.81;98809.11;;;;-52
2020/10/04 12:53:25;;;;;;;2.36;1.13;;;;;;;20.75;62.81;98801.73;;;;-52
2020/10/04 12:56:25;;;;;;;1.77;1.23;;;;;;;20.76;62.67;98801.81;;;;-54
2020/10/04 12:59:25;;;;;;;2.61;1.19;;;;;;;20.76;62.70;98807.33;;;;-51
2020/10/04 13:02:25;;;;;;;4.01;1.29;;;;;;;20.76;62.67;98794.72;;;;-56
2020/10/04 13:05:25;;;;;;;1.81;1.27;;;;;;;20.77;62.69;98810.41;;;;-56
2020/10/04 13:08:25;;;;;;;2.41;1.20;;;;;;;20.77;62.67;98817.97;;;;-54
2020/10/04 13:11:25;;;;;;;4.15;1.31;;;;;;;20.77;62.61;98816.44;;;;-51
2020/10/04 13:14:26;;;;;;;4.24;1.44;;;;;;;20.76;62.61;98808.55;;;;-55
2020/10/04 13:17:25;;;;;;;1.96;1.25;;;;;;;20.77;62.52;98808.20;;;;-52
2020/10/04 13:20:25;;;;;;;2.12;1.39;;;;;;;20.78;62.46;98807.84;;;;-58
2020/10/04 13:23:26;;;;;;;3.56;1.41;;;;;;;20.76;62.42;98792.94;;;;-58
2020/10/04 13:26:25;;;;;;;4.60;1.55;;;;;;;20.77;62.66;98794.28;;;;-57
2020/10/04 13:29:25;;;;;;;3.41;1.40;;;;;;;20.77;62.67;98791.20;;;;-54
2020/10/04 13:32:25;;;;;;;5.79;1.40;;;;;;;20.78;62.67;98800.19;;;;-56
2020/10/04 13:35:25;;;;;;;1.77;1.38;;;;;;;20.79;62.71;98791.45;;;;-52
2020/10/04 13:38:25;;;;;;;3.39;1.40;;;;;;;20.81;62.70;98791.83;;;;-56
2020/10/04 13:41:25;;;;;;;3.01;1.45;;;;;;;20.81;62.69;98799.38;;;;-55
2020/10/04 13:44:25;;;;;;;2.05;1.32;;;;;;;20.82;62.77;98809.73;;;;-51
2020/10/04 13:47:25;;;;;;;2.60;1.34;;;;;;;20.84;62.84;98813.66;;;;-56
2020/10/04 13:50:25;;;;;;;3.45;1.33;;;;;;;20.83;62.84;98807.09;;;;-58
2020/10/04 13:53:25;;;;;;;1.73;1.30;;;;;;;20.83;62.89;98799.58;;;;-60
2020/10/04 13:56:25;;;;;;;2.08;1.35;;;;;;;20.85;62.88;98797.42;;;;-56
2020/10/04 13:59:25;;;;;;;3.46;1.39;;;;;;;20.84;62.90;98797.52;;;;-57
2020/10/04 14:02:25;;;;;;;2.91;1.32;;;;;;;20.85;62.89;98791.23;;;;-52
2020/10/04 14:05:25;;;;;;;1.81;1.39;;;;;;;20.85;62.92;98788.19;;;;-51
2020/10/04 14:08:25;;;;;;;2.29;1.50;;;;;;;20.85;62.96;98789.27;;;;-54
2020/10/04 14:11:25;;;;;;;1.81;1.30;;;;;;;20.86;62.95;98787.80;;;;-61
2020/10/04 14:14:25;;;;;;;3.12;1.41;;;;;;;20.87;62.97;98791.02;;;;-57
2020/10/04 14:17:25;;;;;;;2.69;1.38;;;;;;;20.86;63.04;98785.36;;;;-56
2020/10/04 14:20:25;;;;;;;2.43;1.43;;;;;;;20.86;63.06;98786.73;;;;-58
2020/10/04 14:23:25;;;;;;;2.29;1.41;;;;;;;20.86;63.04;98779.73;;;;-56
2020/10/04 14:26:25;;;;;;;1.77;1.41;;;;;;;20.85;63.05;98776.08;;;;-57
2020/10/04 14:29:25;;;;;;;2.75;1.50;;;;;;;20.86;62.97;98781.95;;;;-49
2020/10/04 14:32:26;;;;;;;3.21;1.49;;;;;;;20.84;63.04;98784.48;;;;-52
2020/10/04 14:35:25;;;;;;;2.19;1.40;;;;;;;20.83;63.10;98784.92;;;;-52
2020/10/04 14:38:25;;;;;;;1.43;1.27;;;;;;;20.82;63.12;98781.70;;;;-59
2020/10/04 14:41:25;;;;;;;2.53;1.23;;;;;;;20.81;63.12;98780.83;;;;-47
2020/10/04 14:44:25;;;;;;;3.02;1.33;;;;;;;20.80;63.10;98783.97;;;;-47
2020/10/04 14:47:25;;;;;;;1.56;1.30;;;;;;;20.79;63.13;98778.67;;;;-47
2020/10/04 14:50:25;;;;;;;2.27;1.30;;;;;;;20.78;63.09;98778.30;;;;-47
2020/10/04 14:53:25;;;;;;;2.41;1.33;;;;;;;20.77;63.13;98777.27;;;;-59
2020/10/04 14:56:25;;;;;;;1.55;1.23;;;;;;;20.76;63.14;98778.94;;;;-59
2020/10/04 14:59:25;;;;;;;1.71;1.19;;;;;;;20.76;63.15;98777.88;;;;-58
2020/10/04 15:02:25;;;;;;;1.63;1.30;;;;;;;20.75;63.17;98774.38;;;;-58
2020/10/04 15:05:25;;;;;;;1.33;1.23;;;;;;;20.73;63.16;98770.21;;;;-59
2020/10/04 15:08:25;;;;;;;2.05;1.25;;;;;;;20.73;63.21;98771.12;;;;-49
2020/10/04 15:11:25;;;;;;;1.60;1.17;;;;;;;20.73;63.18;98770.14;;;;-51
2020/10/04 15:14:25;;;;;;;1.95;1.20;;;;;;;20.72;63.18;98763.64;;;;-52
2020/10/04 15:17:25;;;;;;;1.93;1.23;;;;;;;20.72;63.19;98761.71;;;;-59
2020/10/04 15:20:25;;;;;;;1.57;1.16;;;;;;;20.71;63.22;98766.12;;;;-59
2020/10/04 15:23:25;;;;;;;2.72;1.13;;;;;;;20.70;63.16;98764.02;;;;-59
2020/10/04 15:26:25;;;;;;;1.96;1.25;;;;;;;20.69;63.21;98758.02;;;;-48
2020/10/04 15:29:25;;;;;;;1.82;1.22;;;;;;;20.69;63.21;98749.72;;;;-52
2020/10/04 15:32:25;;;;;;;1.23;1.13;;;;;;;20.68;63.21;98744.84;;;;-49
2020/10/04 15:35:25;;;;;;;1.93;1.25;;;;;;;20.68;63.25;98747.07;;;;-49
2020/10/04 15:38:25;;;;;;;1.73;1.35;;;;;;;20.68;63.23;98743.00;;;;-49
2020/10/04 15:41:25;;;;;;;1.61;1.20;;;;;;;20.67;63.25;98738.95;;;;-49
2020/10/04 15:44:25;;;;;;;1.43;1.20;;;;;;;20.66;63.20;98742.78;;;;-49
2020/10/04 15:47:25;;;;;;;2.70;1.42;;;;;;;20.66;63.34;98740.98;;;;-50
2020/10/04 15:50:25;;;;;;;1.79;1.19;;;;;;;20.67;63.34;98748.39;;;;-47
2020/10/04 15:53:25;;;;;;;1.52;1.19;;;;;;;20.67;63.37;98747.81;;;;-51
2020/10/04 15:56:25;;;;;;;2.79;1.36;;;;;;;20.69;63.40;98750.13;;;;-50
2020/10/04 15:59:25;;;;;;;1.89;1.23;;;;;;;20.70;63.52;98755.23;;;;-48
2020/10/04 16:02:25;;;;;;;2.35;1.25;;;;;;;20.71;63.50;98764.50;;;;-50
2020/10/04 16:05:25;;;;;;;1.87;1.13;;;;;;;20.73;63.52;98780.87;;;;-49
2020/10/04 16:08:25;;;;;;;3.15;1.20;;;;;;;20.74;63.53;98817.64;;;;-49
2020/10/04 16:11:25;;;;;;;1.77;1.30;;;;;;;20.74;63.60;98827.89;;;;-50
2020/10/04 16:14:25;;;;;;;2.57;1.18;;;;;;;20.75;63.61;98851.98;;;;-47
2020/10/04 16:17:25;;;;;;;1.58;1.24;;;;;;;20.75;63.64;98846.52;;;;-50
2020/10/04 16:20:25;;;;;;;1.27;1.17;;;;;;;20.75;63.66;98859.55;;;;-52
2020/10/04 16:23:25;;;;;;;2.05;1.23;;;;;;;20.77;63.74;98855.34;;;;-49
2020/10/04 16:26:25;;;;;;;1.14;1.04;;;;;;;20.77;63.70;98851.61;;;;-50
2020/10/04 16:29:25;;;;;;;1.55;1.31;;;;;;;20.77;63.78;98854.44;;;;-47
2020/10/04 16:32:25;;;;;;;1.89;1.07;;;;;;;20.78;63.76;98857.75;;;;-46
2020/10/04 16:35:25;;;;;;;1.31;1.15;;;;;;;20.78;63.76;98860.86;;;;-56
2020/10/04 16:38:25;;;;;;;2.37;1.14;;;;;;;20.80;63.76;98873.98;;;;-46
2020/10/04 16:41:25;;;;;;;1.38;1.10;;;;;;;20.78;63.72;98870.47;;;;-47
2020/10/04 16:44:25;;;;;;;1.80;1.27;;;;;;;20.77;63.67;98863.88;;;;-47
2020/10/04 16:47:25;;;;;;;1.66;1.20;;;;;;;20.75;63.68;98868.75;;;;-47
2020/10/04 16:50:29;;;;;;;5.83;1.31;;;;;;;20.76;63.71;98872.69;;;;-51
2020/10/04 16:53:25;;;;;;;4.37;1.26;;;;;;;20.76;63.54;98871.55;;;;-47
2020/10/04 16:56:25;;;;;;;3.08;1.28;;;;;;;20.75;63.63;98879.50;;;;-51